createdAt,value
2023-03-30T00:01:46.647Z,6.93
2023-03-30T00:04:14.498Z,6.24
2023-03-30T00:06:43.034Z,6.15
2023-03-30T00:09:10.797Z,6.10
2023-03-30T00:11:38.688Z,6.47
2023-03-30T00:14:06.097Z,6.34
2023-03-30T00:16:33.532Z,6.69
2023-03-30T00:19:01.555Z,8.02
2023-03-30T00:21:29.186Z,8.27
2023-03-30T00:23:56.565Z,8.50
2023-03-30T00:26:24.745Z,8.96
2023-03-30T00:28:52.109Z,8.92
2023-03-30T00:31:19.537Z,8.23
2023-03-30T00:33:48.013Z,7.03
2023-03-30T00:36:16.611Z,6.85
2023-03-30T00:38:45.780Z,7.06
2023-03-30T00:41:13.696Z,6.96
2023-03-30T00:43:57.304Z,6.79
2023-03-30T00:46:25.322Z,6.77
2023-03-30T00:48:57.873Z,6.17
2023-03-30T00:51:27.237Z,5.90
2023-03-30T00:53:59.727Z,5.97
2023-03-30T00:56:29.680Z,6.30
2023-03-30T00:58:57.337Z,6.53
2023-03-30T01:01:28.758Z,6.97
2023-03-30T01:04:00.370Z,7.19
2023-03-30T01:06:30.264Z,7.43
2023-03-30T01:08:58.216Z,7.55
2023-03-30T01:11:26.801Z,7.80
2023-03-30T01:14:00.295Z,7.93
2023-03-30T01:16:35.810Z,8.42
2023-03-30T01:19:58.681Z,8.69
2023-03-30T01:22:30.126Z,8.38
2023-03-30T01:25:28.668Z,8.17
2023-03-30T01:28:00.125Z,8.19
2023-03-30T01:30:55.339Z,7.98
2023-03-30T01:34:13.215Z,7.82
2023-03-30T01:36:54.164Z,7.13
2023-03-30T01:39:59.904Z,6.98
2023-03-30T01:42:50.571Z,7.13
2023-03-30T01:45:27.066Z,7.21
2023-03-30T01:48:21.083Z,7.41
2023-03-30T01:50:51.325Z,7.41
2023-03-30T01:53:36.084Z,7.31
2023-03-30T01:56:15.825Z,7.20
2023-03-30T01:58:46.932Z,7.14
2023-03-30T02:01:17.499Z,7.27
2023-03-30T02:03:48.392Z,7.32
2023-03-30T02:06:24.647Z,8.16
2023-03-30T02:08:55.851Z,7.60
2023-03-30T02:11:25.351Z,7.53
2023-03-30T02:13:55.221Z,7.46
2023-03-30T02:16:31.059Z,7.22
2023-03-30T02:19:01.161Z,7.37
2023-03-30T02:21:30.074Z,7.79
2023-03-30T02:23:58.263Z,7.47
2023-03-30T02:26:27.295Z,7.29
2023-03-30T02:28:55.284Z,7.40
2023-03-30T02:31:22.814Z,7.19
2023-03-30T02:34:24.583Z,7.20
2023-03-30T02:37:07.594Z,7.20
2023-03-30T02:40:13.443Z,7.19
2023-03-30T02:42:47.909Z,7.26
2023-03-30T02:45:21.224Z,7.34
2023-03-30T02:47:54.232Z,7.09
2023-03-30T02:50:37.411Z,7.25
2023-03-30T02:53:49.319Z,7.29
2023-03-30T02:56:37.847Z,7.17
2023-03-30T02:59:12.985Z,7.26
2023-03-30T03:01:44.444Z,7.38
2023-03-30T03:04:12.534Z,7.36
2023-03-30T03:06:40.511Z,7.70
2023-03-30T03:09:08.425Z,7.35
2023-03-30T03:11:36.177Z,7.04
2023-03-30T03:14:04.325Z,7.09
2023-03-30T03:16:32.681Z,7.38
2023-03-30T03:19:03.488Z,7.49
2023-03-30T03:21:31.105Z,7.42
2023-03-30T03:23:58.914Z,7.72
2023-03-30T03:26:27.166Z,7.78
2023-03-30T03:28:54.992Z,7.52
2023-03-30T03:31:24.449Z,7.88
2023-03-30T03:33:52.075Z,7.77
2023-03-30T03:36:20.004Z,7.57
2023-03-30T03:38:48.139Z,7.48
2023-03-30T03:41:16.082Z,7.59
2023-03-30T03:43:43.711Z,7.68
2023-03-30T03:46:11.570Z,7.64
2023-03-30T03:48:39.830Z,7.50
2023-03-30T03:51:08.305Z,7.39
2023-03-30T03:53:36.874Z,7.23
2023-03-30T03:56:04.702Z,7.16
2023-03-30T03:58:32.141Z,6.85
2023-03-30T04:01:00.883Z,7.03
2023-03-30T04:03:28.971Z,7.41
2023-03-30T04:06:00.544Z,7.19
2023-03-30T04:08:28.853Z,7.00
2023-03-30T04:11:04.859Z,7.05
2023-03-30T04:13:33.078Z,6.91
2023-03-30T04:16:01.423Z,7.07
2023-03-30T04:18:31.510Z,7.32
2023-03-30T04:21:02.960Z,6.87
2023-03-30T04:23:34.340Z,7.06
2023-03-30T04:26:07.419Z,7.33
2023-03-30T04:28:36.892Z,7.54
2023-03-30T04:31:10.631Z,7.35
2023-03-30T04:33:47.419Z,7.35
2023-03-30T04:36:18.767Z,7.25
2023-03-30T04:39:07.014Z,7.54
2023-03-30T04:41:36.061Z,7.70
2023-03-30T04:44:06.434Z,7.66
2023-03-30T04:46:34.141Z,7.21
2023-03-30T04:49:02.240Z,7.67
2023-03-30T04:51:30.862Z,7.29
2023-03-30T04:54:02.359Z,7.24
2023-03-30T04:56:30.379Z,7.26
2023-03-30T04:58:58.053Z,7.17
2023-03-30T05:01:25.571Z,7.19
2023-03-30T05:03:55.382Z,7.45
2023-03-30T05:06:23.589Z,7.37
2023-03-30T05:08:51.611Z,7.18
2023-03-30T05:11:19.621Z,7.45
2023-03-30T05:13:47.360Z,7.92
2023-03-30T05:16:15.330Z,7.61
2023-03-30T05:18:47.337Z,7.52
2023-03-30T05:21:19.022Z,7.45
2023-03-30T05:23:47.096Z,7.23
2023-03-30T05:26:15.826Z,7.45
2023-03-30T05:28:44.683Z,7.65
2023-03-30T05:31:12.826Z,7.74
2023-03-30T05:33:42.647Z,7.64
2023-03-30T05:36:13.427Z,7.41
2023-03-30T05:38:41.036Z,7.95
2023-03-30T05:41:09.642Z,7.96
2023-03-30T05:43:37.834Z,7.92
2023-03-30T05:46:07.183Z,8.31
2023-03-30T05:48:35.191Z,8.17
2023-03-30T05:51:03.208Z,7.93
2023-03-30T05:53:31.135Z,7.78
2023-03-30T05:55:59.205Z,8.16
2023-03-30T05:58:27.539Z,8.22
2023-03-30T06:00:59.367Z,8.10
2023-03-30T06:03:27.653Z,8.34
2023-03-30T06:05:55.304Z,8.16
2023-03-30T06:08:23.043Z,8.50
2023-03-30T06:10:56.163Z,8.10
2023-03-30T06:13:24.349Z,8.54
2023-03-30T06:15:52.377Z,8.87
2023-03-30T06:18:21.664Z,9.20
2023-03-30T06:20:51.755Z,8.82
2023-03-30T06:23:20.314Z,8.98
2023-03-30T06:25:52.723Z,9.45
2023-03-30T06:28:22.095Z,9.29
2023-03-30T06:30:49.596Z,9.57
2023-03-30T06:33:18.798Z,9.46
2023-03-30T06:35:50.943Z,9.46
2023-03-30T06:38:19.317Z,9.92
2023-03-30T06:40:47.488Z,9.46
2023-03-30T06:43:23.443Z,9.67
2023-03-30T06:45:54.940Z,9.98
2023-03-30T06:48:26.736Z,9.99
2023-03-30T06:50:56.218Z,9.87
2023-03-30T06:53:24.565Z,10.31
2023-03-30T06:55:54.838Z,10.38
2023-03-30T06:58:23.859Z,10.95
2023-03-30T07:00:51.740Z,10.88
2023-03-30T07:03:21.849Z,10.62
2023-03-30T07:05:50.764Z,10.58
2023-03-30T07:08:19.494Z,9.95
2023-03-30T07:10:48.841Z,10.32
2023-03-30T07:13:17.574Z,10.31
2023-03-30T07:15:46.592Z,10.30
2023-03-30T07:18:15.052Z,9.94
2023-03-30T07:20:44.946Z,9.99
2023-03-30T07:23:13.002Z,10.17
2023-03-30T07:25:44.590Z,10.20
2023-03-30T07:28:14.026Z,9.76
2023-03-30T07:30:42.021Z,9.61
2023-03-30T07:33:10.321Z,10.55
2023-03-30T07:35:45.026Z,9.69
2023-03-30T07:38:14.480Z,9.86
2023-03-30T07:40:43.590Z,10.32
2023-03-30T07:43:11.728Z,10.13
2023-03-30T07:45:39.331Z,10.76
2023-03-30T07:48:07.585Z,10.72
2023-03-30T07:50:35.563Z,11.45
2023-03-30T07:53:03.399Z,11.26
2023-03-30T07:55:31.971Z,11.90
2023-03-30T07:57:59.922Z,11.77
2023-03-30T08:00:27.854Z,11.31
2023-03-30T08:02:59.596Z,11.35
2023-03-30T08:05:29.468Z,11.81
2023-03-30T08:07:58.863Z,12.05
2023-03-30T08:10:27.187Z,11.77
2023-03-30T08:12:54.620Z,11.02
2023-03-30T08:15:22.336Z,11.86
2023-03-30T08:17:49.811Z,11.98
2023-03-30T08:20:17.514Z,12.49
2023-03-30T08:22:45.697Z,12.43
2023-03-30T08:25:13.218Z,11.89
2023-03-30T08:27:40.921Z,11.99
2023-03-30T08:30:09.288Z,12.44
2023-03-30T08:32:36.808Z,12.26
2023-03-30T08:35:05.293Z,11.82
2023-03-30T08:37:33.072Z,12.67
2023-03-30T08:40:00.638Z,12.82
2023-03-30T08:42:45.939Z,12.64
2023-03-30T08:45:14.176Z,13.37
2023-03-30T08:47:44.518Z,13.18
2023-03-30T08:50:19.208Z,13.06
2023-03-30T08:52:47.183Z,13.33
2023-03-30T08:55:26.819Z,13.25
2023-03-30T08:58:15.992Z,12.51
2023-03-30T09:00:57.614Z,11.15
2023-03-30T09:03:34.089Z,11.81
2023-03-30T09:06:10.753Z,12.44
2023-03-30T09:08:39.134Z,12.32
2023-03-30T09:11:15.636Z,11.56
2023-03-30T09:13:45.772Z,11.84
2023-03-30T09:16:21.385Z,12.73
2023-03-30T09:18:55.312Z,13.46
2023-03-30T09:21:25.789Z,12.89
2023-03-30T09:23:56.601Z,12.92
2023-03-30T09:26:28.625Z,12.20
2023-03-30T09:29:03.869Z,13.78
2023-03-30T09:31:41.628Z,13.46
2023-03-30T09:34:27.590Z,14.16
2023-03-30T09:37:06.329Z,14.44
2023-03-30T09:39:36.232Z,14.49
2023-03-30T09:42:18.962Z,14.16
2023-03-30T09:45:00.403Z,14.40
2023-03-30T09:47:28.841Z,14.26
2023-03-30T09:50:10.243Z,14.71
2023-03-30T09:52:41.724Z,15.05
2023-03-30T09:55:26.982Z,13.90
2023-03-30T09:58:12.734Z,14.47
2023-03-30T10:00:40.981Z,14.96
2023-03-30T10:03:21.005Z,14.88
2023-03-30T10:06:19.594Z,15.60
2023-03-30T10:08:55.501Z,15.28
2023-03-30T10:11:52.791Z,14.64
2023-03-30T10:14:34.941Z,14.91
2023-03-30T10:17:03.947Z,15.14
2023-03-30T10:19:36.964Z,14.87
2023-03-30T10:22:17.024Z,15.69
2023-03-30T10:24:55.120Z,15.29
2023-03-30T10:27:28.558Z,14.82
2023-03-30T10:29:58.398Z,15.33
2023-03-30T10:32:31.108Z,15.56
2023-03-30T10:35:02.055Z,14.70
2023-03-30T10:37:38.667Z,15.32
2023-03-30T10:40:27.177Z,15.62
2023-03-30T10:42:57.587Z,15.89
2023-03-30T10:45:44.775Z,15.88
2023-03-30T10:48:16.755Z,16.29
2023-03-30T10:51:11.922Z,16.29
2023-03-30T10:53:47.496Z,16.56
2023-03-30T10:56:33.533Z,17.05
2023-03-30T10:59:37.255Z,17.15
2023-03-30T11:02:42.954Z,17.25
2023-03-30T11:05:32.416Z,17.02
2023-03-30T11:08:06.922Z,16.73
2023-03-30T11:10:42.206Z,16.92
2023-03-30T11:13:15.678Z,15.40
2023-03-30T11:16:09.854Z,15.14
2023-03-30T11:18:42.636Z,16.02
2023-03-30T11:21:18.013Z,16.45
2023-03-30T11:23:53.585Z,16.38
2023-03-30T11:26:31.834Z,16.06
2023-03-30T11:29:30.065Z,14.93
2023-03-30T11:32:06.593Z,14.81
2023-03-30T11:34:53.583Z,15.47
2023-03-30T11:37:29.876Z,15.38
2023-03-30T11:40:14.472Z,16.31
2023-03-30T11:42:42.490Z,16.54
2023-03-30T11:45:20.062Z,17.19
2023-03-30T11:48:12.354Z,17.01
2023-03-30T11:50:53.680Z,16.06
2023-03-30T11:53:41.529Z,16.57
2023-03-30T11:56:38.803Z,17.34
2023-03-30T11:59:13.464Z,16.91
2023-03-30T12:02:02.889Z,16.55
2023-03-30T12:04:38.658Z,15.96
2023-03-30T12:07:12.439Z,16.59
2023-03-30T12:09:44.757Z,16.70
2023-03-30T12:12:16.076Z,16.03
2023-03-30T12:15:01.635Z,16.39
2023-03-30T12:17:57.038Z,15.13
2023-03-30T12:20:53.181Z,15.40
2023-03-30T12:23:26.788Z,15.59
2023-03-30T12:25:55.402Z,15.25
2023-03-30T12:28:35.800Z,15.15
2023-03-30T12:31:15.113Z,15.32
2023-03-30T12:33:48.919Z,15.01
2023-03-30T12:36:26.206Z,15.40
2023-03-30T12:38:58.062Z,15.73
2023-03-30T12:41:26.989Z,15.36
2023-03-30T12:44:09.265Z,15.19
2023-03-30T12:46:53.840Z,15.37
2023-03-30T12:49:27.417Z,16.00
2023-03-30T12:52:04.149Z,15.92
2023-03-30T12:54:49.441Z,16.05
2023-03-30T12:57:49.300Z,16.14
2023-03-30T13:00:36.364Z,15.52
2023-03-30T13:03:15.860Z,15.21
2023-03-30T13:05:44.178Z,15.19
2023-03-30T13:08:30.936Z,15.64
2023-03-30T13:11:07.739Z,15.42
2023-03-30T13:14:46.290Z,15.68
2023-03-30T13:17:20.471Z,15.90
2023-03-30T13:20:15.387Z,15.91
2023-03-30T13:23:13.703Z,15.56
2023-03-30T13:26:07.809Z,16.29
2023-03-30T13:28:54.916Z,16.10
2023-03-30T13:31:53.638Z,15.86
2023-03-30T13:34:51.495Z,15.82
2023-03-30T13:37:53.275Z,15.68
2023-03-30T13:40:40.140Z,15.34
2023-03-30T13:43:16.621Z,15.53
2023-03-30T13:46:00.385Z,15.34
2023-03-30T13:48:52.980Z,15.39
2023-03-30T13:51:24.760Z,16.00
2023-03-30T13:53:59.484Z,16.28
2023-03-30T13:56:30.659Z,16.01
2023-03-30T13:59:08.071Z,15.70
2023-03-30T14:01:39.132Z,15.72
2023-03-30T14:04:11.216Z,15.90
2023-03-30T14:06:45.989Z,16.09
2023-03-30T14:09:19.132Z,15.97
2023-03-30T14:11:50.292Z,16.10
2023-03-30T14:14:28.064Z,15.92
2023-03-30T14:16:57.034Z,15.70
2023-03-30T14:19:32.801Z,15.75
2023-03-30T14:22:16.417Z,15.57
2023-03-30T14:24:57.741Z,15.40
2023-03-30T14:27:25.271Z,16.18
2023-03-30T14:29:53.276Z,16.04
2023-03-30T14:32:23.489Z,15.69
2023-03-30T14:34:52.659Z,16.56
2023-03-30T14:37:21.574Z,16.94
2023-03-30T14:39:54.750Z,17.07
2023-03-30T14:42:26.130Z,17.41
2023-03-30T14:44:56.158Z,17.36
2023-03-30T14:47:25.874Z,17.38
2023-03-30T14:50:03.125Z,17.56
2023-03-30T14:52:42.308Z,17.56
2023-03-30T14:55:23.606Z,17.23
2023-03-30T14:57:51.751Z,17.58
2023-03-30T15:00:21.367Z,17.46
2023-03-30T15:02:54.260Z,18.09
2023-03-30T15:05:24.826Z,17.74
2023-03-30T15:07:52.828Z,17.74
2023-03-30T15:10:35.876Z,17.71
2023-03-30T15:13:07.377Z,17.56
2023-03-30T15:15:35.500Z,17.58
2023-03-30T15:18:04.293Z,17.69
2023-03-30T15:20:33.386Z,17.66
2023-03-30T15:23:01.662Z,17.55
2023-03-30T15:25:35.477Z,17.27
2023-03-30T15:28:08.407Z,17.34
2023-03-30T15:30:39.668Z,17.38
2023-03-30T15:33:20.781Z,17.29
2023-03-30T15:35:53.126Z,17.22
2023-03-30T15:38:29.963Z,17.20
2023-03-30T15:40:57.821Z,17.14
2023-03-30T15:43:32.312Z,16.90
2023-03-30T15:46:13.616Z,17.09
2023-03-30T15:48:50.353Z,17.08
2023-03-30T15:51:22.544Z,17.16
2023-03-30T15:53:54.439Z,16.97
2023-03-30T15:56:30.733Z,16.95
2023-03-30T15:58:58.842Z,16.84
2023-03-30T16:01:52.321Z,16.72
2023-03-30T16:04:22.738Z,16.36
2023-03-30T16:06:50.772Z,16.44
2023-03-30T16:09:20.162Z,16.53
2023-03-30T16:11:50.282Z,16.61
2023-03-30T16:14:20.454Z,16.27
2023-03-30T16:16:48.920Z,16.13
2023-03-30T16:19:18.775Z,15.97
2023-03-30T16:21:46.278Z,15.59
2023-03-30T16:24:14.006Z,15.14
2023-03-30T16:26:42.186Z,15.06
2023-03-30T16:29:22.057Z,15.24
2023-03-30T16:31:52.723Z,15.44
2023-03-30T16:34:22.033Z,15.64
2023-03-30T16:36:50.588Z,15.82
2023-03-30T16:39:27.558Z,15.79
2023-03-30T16:41:56.118Z,15.58
2023-03-30T16:44:24.463Z,15.12
2023-03-30T16:46:52.527Z,14.91
2023-03-30T16:49:23.208Z,14.99
2023-03-30T16:51:54.502Z,14.84
2023-03-30T16:54:31.254Z,14.71
2023-03-30T16:57:02.738Z,14.74
2023-03-30T16:59:32.207Z,14.69
2023-03-30T17:02:00.325Z,14.80
2023-03-30T17:04:27.926Z,14.90
2023-03-30T17:06:55.762Z,15.23
2023-03-30T17:09:23.842Z,15.42
2023-03-30T17:11:51.742Z,14.79
2023-03-30T17:14:20.947Z,14.97
2023-03-30T17:16:48.629Z,15.08
2023-03-30T17:19:16.300Z,15.00
2023-03-30T17:21:46.124Z,15.12
2023-03-30T17:24:16.685Z,14.84
2023-03-30T17:26:46.325Z,14.86
2023-03-30T17:29:14.190Z,14.39
2023-03-30T17:31:46.026Z,14.43
2023-03-30T17:34:14.989Z,14.46
2023-03-30T17:36:43.425Z,14.58
2023-03-30T17:39:16.157Z,14.45
2023-03-30T17:41:45.397Z,14.54
2023-03-30T17:44:13.416Z,13.96
2023-03-30T17:46:43.780Z,14.04
2023-03-30T17:49:17.601Z,14.18
2023-03-30T17:51:48.386Z,14.19
2023-03-30T17:54:19.853Z,14.49
2023-03-30T17:56:48.547Z,14.70
2023-03-30T17:59:18.679Z,14.84
2023-03-30T18:01:46.880Z,14.59
2023-03-30T18:04:17.025Z,14.43
2023-03-30T18:06:45.639Z,14.39
2023-03-30T18:09:16.894Z,14.23
2023-03-30T18:11:46.512Z,14.38
2023-03-30T18:14:15.694Z,13.85
2023-03-30T18:16:45.657Z,13.53
2023-03-30T18:19:16.135Z,13.61
2023-03-30T18:21:44.921Z,13.67
2023-03-30T18:24:14.008Z,14.12
2023-03-30T18:26:44.233Z,12.93
2023-03-30T18:29:20.685Z,12.59
2023-03-30T18:31:51.066Z,12.33
2023-03-30T18:34:21.470Z,12.78
2023-03-30T18:36:49.814Z,13.53
2023-03-30T18:39:20.406Z,13.74
2023-03-30T18:41:51.661Z,13.74
2023-03-30T18:44:21.050Z,14.31
2023-03-30T18:46:54.435Z,13.95
2023-03-30T18:49:25.714Z,13.73
2023-03-30T18:51:55.941Z,13.45
2023-03-30T18:54:25.207Z,14.00
2023-03-30T18:56:54.007Z,13.59
2023-03-30T18:59:25.436Z,13.41
2023-03-30T19:01:54.538Z,12.90
2023-03-30T19:04:23.260Z,13.09
2023-03-30T19:06:53.452Z,13.32
2023-03-30T19:09:32.918Z,13.26
2023-03-30T19:12:15.900Z,13.01
2023-03-30T19:14:45.102Z,13.88
2023-03-30T19:17:15.813Z,14.16
2023-03-30T19:19:44.975Z,13.47
2023-03-30T19:22:13.692Z,12.51
2023-03-30T19:24:42.080Z,13.09
2023-03-30T19:27:11.686Z,12.38
2023-03-30T19:29:41.311Z,12.66
2023-03-30T19:32:10.055Z,13.48
2023-03-30T19:34:39.922Z,13.21
2023-03-30T19:37:09.191Z,13.93
2023-03-30T19:39:38.990Z,13.50
2023-03-30T19:42:09.235Z,14.00
2023-03-30T19:44:38.303Z,13.61
2023-03-30T19:47:07.241Z,13.23
2023-03-30T19:49:35.926Z,12.90
2023-03-30T19:52:07.003Z,12.23
2023-03-30T19:54:36.361Z,11.89
2023-03-30T19:57:05.121Z,11.61
2023-03-30T19:59:34.546Z,11.85
2023-03-30T20:02:03.223Z,11.78
2023-03-30T20:04:31.629Z,12.08
2023-03-30T20:07:00.543Z,12.27
2023-03-30T20:09:29.368Z,12.29
2023-03-30T20:11:58.919Z,12.24
2023-03-30T20:14:28.063Z,11.70
2023-03-30T20:16:57.049Z,11.58
2023-03-30T20:19:29.970Z,11.48
2023-03-30T20:22:01.062Z,11.85
2023-03-30T20:24:30.421Z,12.24
2023-03-30T20:26:58.406Z,12.14
2023-03-30T20:29:26.051Z,12.12
2023-03-30T20:31:54.633Z,11.67
2023-03-30T20:34:22.124Z,11.73
2023-03-30T20:36:50.211Z,12.06
2023-03-30T20:39:18.047Z,12.27
2023-03-30T20:41:45.595Z,12.99
2023-03-30T20:44:13.274Z,11.49
2023-03-30T20:46:44.656Z,12.59
2023-03-30T20:49:13.027Z,13.38
2023-03-30T20:51:43.251Z,12.56
2023-03-30T20:54:11.037Z,13.69
2023-03-30T20:56:38.477Z,13.87
2023-03-30T20:59:06.331Z,13.52
2023-03-30T21:01:34.073Z,12.57
2023-03-30T21:04:02.304Z,11.66
2023-03-30T21:06:31.941Z,11.75
2023-03-30T21:09:03.523Z,11.42
2023-03-30T21:11:34.064Z,11.36
2023-03-30T21:14:02.220Z,11.69
2023-03-30T21:16:29.790Z,11.30
2023-03-30T21:18:57.690Z,11.27
2023-03-30T21:21:25.114Z,11.27
2023-03-30T21:23:52.571Z,11.45
2023-03-30T21:26:20.518Z,11.65
2023-03-30T21:28:48.484Z,11.66
2023-03-30T21:31:17.074Z,12.22
2023-03-30T21:33:44.884Z,12.64
2023-03-30T21:36:12.609Z,13.22
2023-03-30T21:38:40.075Z,13.08
2023-03-30T21:41:07.842Z,13.47
2023-03-30T21:43:37.646Z,14.19
2023-03-30T21:46:07.042Z,12.61
2023-03-30T21:48:36.536Z,12.18
2023-03-30T21:51:15.983Z,12.85
2023-03-30T21:53:46.002Z,13.33
2023-03-30T21:56:15.009Z,13.38
2023-03-30T21:58:42.590Z,13.10
2023-03-30T22:01:12.740Z,11.75
2023-03-30T22:03:42.016Z,11.60
2023-03-30T22:06:11.580Z,11.74
2023-03-30T22:08:39.518Z,11.37
2023-03-30T22:11:16.625Z,12.01
2023-03-30T22:13:46.078Z,12.33
2023-03-30T22:16:23.029Z,12.50
2023-03-30T22:18:51.135Z,12.86
2023-03-30T22:21:21.563Z,13.23
2023-03-30T22:23:48.972Z,13.50
2023-03-30T22:26:16.766Z,13.75
2023-03-30T22:28:44.619Z,13.41
2023-03-30T22:31:14.469Z,13.12
2023-03-30T22:33:42.013Z,13.13
2023-03-30T22:36:21.274Z,12.51
2023-03-30T22:38:50.810Z,12.20
2023-03-30T22:41:23.746Z,12.02
2023-03-30T22:43:55.275Z,11.88
2023-03-30T22:46:24.916Z,11.77
2023-03-30T22:48:55.552Z,12.73
2023-03-30T22:51:27.441Z,12.66
2023-03-30T22:53:59.312Z,12.20
2023-03-30T22:56:28.819Z,12.59
2023-03-30T22:58:56.908Z,12.57
2023-03-30T23:01:24.501Z,12.32
2023-03-30T23:03:53.534Z,12.29
2023-03-30T23:06:21.500Z,12.27
2023-03-30T23:08:51.657Z,12.35
2023-03-30T23:11:21.648Z,12.36
2023-03-30T23:13:49.526Z,12.12
2023-03-30T23:16:16.973Z,11.58
2023-03-30T23:18:44.731Z,11.81
2023-03-30T23:21:14.085Z,11.48
2023-03-30T23:23:41.855Z,12.35
2023-03-30T23:26:10.900Z,12.86
2023-03-30T23:28:39.779Z,13.67
2023-03-30T23:31:15.098Z,13.41
2023-03-30T23:33:43.496Z,14.10
2023-03-30T23:36:17.136Z,13.27
2023-03-30T23:38:45.459Z,12.92
2023-03-30T23:41:14.534Z,13.12
2023-03-30T23:43:42.040Z,13.36
2023-03-30T23:46:10.515Z,13.04
2023-03-30T23:48:38.567Z,12.56
2023-03-30T23:51:06.797Z,12.08
2023-03-30T23:53:34.670Z,13.11
2023-03-30T23:56:06.439Z,12.81
2023-03-30T23:58:34.487Z,12.42
